Time;durP1;ratioP1;P1;durP2;ratioP2;P2;SDS_P1;SDS_P2;PMS_P1;PMS_P2;Temp;Humidity;BMP_temperature;BMP_pressure;BME280_temperature;BME280_humidity;BME280_pressure;Samples;Min_cycle;Max_cycle;Signal;HPM_P1;HPM_P2
2020/12/02 00:00:58;;;;;;;0.00;0.00;;;5.70;81.00;;;;;;3507081;33;20141;-87
2020/12/02 00:03:25;;;;;;;0.40;0.20;;;5.70;81.00;;;;;;3504833;41;20129;-89
2020/12/02 00:05:55;;;;;;;0.00;0.00;;;5.80;81.10;;;;;;3500264;40;20145;-87
2020/12/02 00:08:25;;;;;;;0.10;0.10;;;5.70;81.00;;;;;;3495989;41;20172;-87
2020/12/02 00:10:51;;;;;;;0.37;0.20;;;5.70;81.00;;;;;;3505896;33;20169;-88
2020/12/02 00:13:32;;;;;;;0.00;0.00;;;5.70;81.00;;;;;;3493930;41;20142;-87
2020/12/02 00:15:59;;;;;;;0.00;0.00;;;5.80;81.10;;;;;;3504713;33;20549;-87
2020/12/02 00:18:26;;;;;;;0.70;0.30;;;5.70;81.10;;;;;;3505819;40;20177;-89
2020/12/02 00:20:52;;;;;;;0.20;0.00;;;5.70;81.20;;;;;;3499371;33;20318;-91
2020/12/02 00:23:19;;;;;;;0.00;0.00;;;5.70;81.30;;;;;;3499781;33;20141;-89
2020/12/02 00:25:45;;;;;;;0.10;0.10;;;5.60;81.20;;;;;;3499656;40;20147;-89
2020/12/02 00:28:12;;;;;;;0.53;0.30;;;5.70;81.40;;;;;;3500556;33;20173;-88
2020/12/02 00:30:39;;;;;;;0.10;0.10;;;5.60;81.40;;;;;;3501207;34;20117;-89
2020/12/02 00:33:15;;;;;;;0.00;0.00;;;5.60;81.40;;;;;;3502627;33;20114;-88
2020/12/02 00:35:47;;;;;;;0.00;0.00;;;5.60;81.40;;;;;;3497639;33;20134;-89
2020/12/02 00:38:13;;;;;;;0.20;0.00;;;5.60;81.50;;;;;;3500560;40;20470;-90
2020/12/02 00:40:44;;;;;;;2.37;0.60;;;5.60;81.50;;;;;;3500463;41;20161;-90
2020/12/02 00:43:15;;;;;;;0.53;0.13;;;5.60;81.60;;;;;;3494243;33;20130;-89
2020/12/02 00:45:42;;;;;;;0.07;0.07;;;5.60;81.60;;;;;;3503368;33;20134;-90
2020/12/02 00:48:13;;;;;;;0.10;0.10;;;5.50;81.60;;;;;;3499413;40;20549;-89
2020/12/02 00:50:39;;;;;;;;;;;5.50;81.70;;;;;;3502752;40;20120;-89
2020/12/02 00:53:17;;;;;;;0.10;0.10;;;5.50;81.70;;;;;;3486048;33;20049;-89
2020/12/02 00:55:44;;;;;;;0.33;0.10;;;5.50;81.70;;;;;;3488987;41;20150;-89
2020/12/02 00:58:37;;;;;;;0.00;0.00;;;5.50;81.70;;;;;;3484094;33;20227;-90
2020/12/02 01:01:05;;;;;;;6.17;0.20;;;5.50;81.70;;;;;;3495276;33;20154;-88
2020/12/02 01:03:32;;;;;;;0.00;0.00;;;5.40;81.60;;;;;;3495793;33;20169;-89
2020/12/02 01:05:59;;;;;;;2.83;0.40;;;5.40;81.60;;;;;;3493940;41;20150;-90
2020/12/02 01:08:27;;;;;;;0.00;0.00;;;5.50;81.60;;;;;;3495148;33;20192;-91
2020/12/02 01:11:13;;;;;;;0.47;0.20;;;5.50;81.50;;;;;;3490972;41;20121;-88
2020/12/02 01:13:39;;;;;;;0.37;0.20;;;5.50;81.40;;;;;;3488917;41;20130;-91
2020/12/02 01:16:11;;;;;;;0.67;0.20;;;5.50;81.30;;;;;;3506612;33;20147;-88
2020/12/02 01:18:37;;;;;;;;;;;5.50;81.30;;;;;;3485832;33;20134;-89
2020/12/02 01:21:35;;;;;;;0.00;0.00;;;5.50;81.30;;;;;;3480359;41;20054;-90
2020/12/02 01:24:09;;;;;;;1.33;0.53;;;5.50;81.10;;;;;;3492160;33;20167;-88
2020/12/02 01:26:43;;;;;;;0.20;0.10;;;5.50;81.10;;;;;;3492126;41;20238;-88
2020/12/02 01:29:17;;;;;;;0.40;0.40;;;5.50;81.10;;;;;;3493958;41;20533;-89
2020/12/02 01:31:45;;;;;;;12.67;0.63;;;5.50;81.10;;;;;;3504365;33;20633;-88
2020/12/02 01:34:11;;;;;;;0.83;0.33;;;5.50;81.10;;;;;;3523550;33;20227;-90
2020/12/02 01:36:59;;;;;;;0.10;0.00;;;5.50;81.20;;;;;;3508491;40;20114;-89
2020/12/02 01:39:28;;;;;;;0.20;0.10;;;5.50;81.20;;;;;;3504970;40;20141;-91
2020/12/02 01:41:57;;;;;;;0.00;0.00;;;5.50;81.20;;;;;;3513804;33;20643;-90
2020/12/02 01:44:24;;;;;;;0.00;0.00;;;5.50;81.20;;;;;;3508162;33;20134;-90
2020/12/02 01:47:06;;;;;;;0.87;0.27;;;5.50;81.30;;;;;;3499372;34;20137;-89
2020/12/02 01:50:00;;;;;;;2.10;0.30;;;5.50;81.40;;;;;;3502194;33;20128;-91
2020/12/02 01:52:38;;;;;;;16.10;0.50;;;5.40;81.30;;;;;;3518500;40;20282;-90
2020/12/02 01:55:05;;;;;;;0.10;0.03;;;5.40;81.40;;;;;;3507586;33;20104;-90
2020/12/02 01:57:34;;;;;;;0.00;0.00;;;5.40;81.40;;;;;;3504572;33;20122;-89
2020/12/02 02:00:12;;;;;;;0.20;0.17;;;5.40;81.60;;;;;;3511707;33;20172;-89
2020/12/02 02:02:57;;;;;;;0.10;0.10;;;5.30;81.70;;;;;;3497424;34;20113;-90
2020/12/02 02:05:28;;;;;;;0.00;0.00;;;5.30;81.80;;;;;;3502969;33;20137;-90
2020/12/02 02:07:55;;;;;;;0.33;0.27;;;5.20;81.90;;;;;;3509286;33;20132;-89
2020/12/02 02:10:31;;;;;;;0.30;0.10;;;5.20;82.00;;;;;;3519239;33;20583;-90
2020/12/02 02:13:40;;;;;;;0.20;0.20;;;5.20;82.10;;;;;;3504754;33;20114;-90
2020/12/02 02:16:29;;;;;;;0.00;0.00;;;5.20;82.10;;;;;;3508999;33;20154;-91
2020/12/02 02:18:55;;;;;;;0.50;0.10;;;5.10;82.10;;;;;;3502974;41;20122;-89
2020/12/02 02:21:24;;;;;;;1.03;0.10;;;5.10;82.20;;;;;;3501868;40;20612;-90
2020/12/02 02:23:51;;;;;;;3.50;0.33;;;5.10;82.20;;;;;;3512976;33;20113;-90
2020/12/02 02:26:30;;;;;;;0.73;0.13;;;5.10;82.30;;;;;;3502698;40;20140;-90
2020/12/02 02:29:07;;;;;;;0.00;0.00;;;5.00;82.30;;;;;;3509258;33;20132;-90
2020/12/02 02:31:40;;;;;;;0.20;0.00;;;5.10;82.30;;;;;;3507439;34;20258;-89
2020/12/02 02:34:08;;;;;;;0.10;0.00;;;5.00;82.30;;;;;;3505268;40;20117;-91
2020/12/02 02:36:39;;;;;;;0.00;0.00;;;5.00;82.30;;;;;;3499008;33;20126;-89
2020/12/02 02:39:09;;;;;;;0.38;0.13;;;5.00;82.30;;;;;;3504613;33;20109;-90
2020/12/02 02:41:38;;;;;;;0.00;0.00;;;5.00;82.30;;;;;;3514539;33;20129;-91
2020/12/02 02:44:07;;;;;;;0.27;0.10;;;5.00;82.40;;;;;;3495390;41;20136;-90
2020/12/02 02:46:33;;;;;;;0.30;0.10;;;5.00;82.50;;;;;;3505557;33;20157;-90
2020/12/02 02:49:02;;;;;;;0.13;0.10;;;5.00;82.50;;;;;;3498915;33;20110;-93
2020/12/02 02:51:28;;;;;;;0.10;0.00;;;5.00;82.60;;;;;;3503941;41;20120;-91
2020/12/02 02:54:14;;;;;;;;;;;;;;;;;;;;;
2020/12/02 02:56:41;;;;;;;0.00;0.00;;;4.90;82.70;;;;;;3503948;41;20110;-90
2020/12/02 02:59:40;;;;;;;0.30;0.10;;;4.90;82.80;;;;;;3523344;33;20117;-90
2020/12/02 03:09:08;;;;;;;11.87;0.50;;;4.80;82.60;;;;;;3514430;27;20086;-90
2020/12/02 03:12:08;;;;;;;;;;;;;;;;;;;;;
2020/12/02 03:14:50;;;;;;;0.00;0.00;;;4.80;82.50;;;;;;3479871;33;20158;-88
2020/12/02 03:21:07;;;;;;;0.30;0.20;;;4.80;82.50;;;;;;3477085;33;20146;-89
2020/12/02 03:24:09;;;;;;;;;;;;;;;;;;;;;
2020/12/02 03:27:11;;;;;;;0.00;0.00;;;4.80;82.40;;;;;;3488088;34;20099;-91
2020/12/02 03:29:39;;;;;;;0.10;0.10;;;4.70;82.30;;;;;;3471647;41;20134;-89
2020/12/02 03:32:45;;;;;;;;;;;;;;;;;;;;;
2020/12/02 03:39:02;;;;;;;0.33;0.20;;;4.80;82.30;;;;;;3485290;33;20510;-88
2020/12/02 03:41:57;;;;;;;0.00;0.00;;;4.80;82.20;;;;;;3498211;33;20384;-87
2020/12/02 03:44:44;;;;;;;0.20;0.20;;;4.80;82.20;;;;;;3482906;33;20149;-89
2020/12/02 03:47:30;;;;;;;0.43;0.17;;;4.80;82.20;;;;;;3495393;33;20118;-89
2020/12/02 03:50:30;;;;;;;0.00;0.00;;;4.80;82.20;;;;;;3473633;41;20147;-88
2020/12/02 03:53:30;;;;;;;;;;;;;;;;;;;;;
2020/12/02 03:59:35;;;;;;;;;;;;;;;;;;;;;
2020/12/02 04:08:22;;;;;;;0.00;0.00;;;4.80;82.20;;;;;;3477957;41;20165;-90
2020/12/02 04:17:07;;;;;;;0.03;0.00;;;4.80;82.10;;;;;;3476025;34;20111;-89
2020/12/02 04:19:49;;;;;;;;;;;;;;;;;;;;;
2020/12/02 04:22:32;;;;;;;0.00;0.00;;;4.80;82.20;;;;;;3481969;41;20075;-88
2020/12/02 04:25:06;;;;;;;2.17;0.40;;;4.80;82.20;;;;;;3489105;41;20123;-90
2020/12/02 04:27:42;;;;;;;0.03;0.00;;;4.70;82.10;;;;;;3474680;41;20134;-89
2020/12/02 04:30:09;;;;;;;0.00;0.00;;;4.80;82.20;;;;;;3489851;34;20118;-88
2020/12/02 04:33:04;;;;;;;0.00;0.00;;;4.70;82.20;;;;;;3483373;41;20534;-88
2020/12/02 04:39:35;;;;;;;;;;;;;;;;;;;;;
2020/12/02 04:42:10;;;;;;;0.07;0.00;;;4.70;82.10;;;;;;3487016;41;20091;-90
2020/12/02 04:45:06;;;;;;;;;;;;;;;;;;;;;
2020/12/02 04:48:14;;;;;;;0.00;0.00;;;4.80;82.20;;;;;;3483275;34;20341;-88
2020/12/02 06:55:49;;;;;;;;;;;;;;;;;;;;;
2020/12/02 07:43:39;;;;;;;0.30;0.10;;;4.00;83.50;;;;;;3026216;28;20404;-89
2020/12/02 07:51:58;;;;;;;0.80;0.23;;;3.90;83.90;;;;;;4004387;27;21417;31
2020/12/02 07:57:38;;;;;;;0.50;0.20;;;3.90;83.90;;;;;;3499877;41;20075;-93
2020/12/02 08:06:09;;;;;;;;;;;;;;;;;;;;;
2020/12/02 08:09:07;;;;;;;0.37;0.37;;;4.10;83.20;;;;;;3493181;40;20149;-89
2020/12/02 09:04:36;;;;;;;2.10;1.00;;;5.50;80.20;;;;;;3627381;27;20070;-92
2020/12/02 09:09:41;;;;;;;2.50;0.60;;;5.70;80.00;;;;;;3696935;27;20065;-90
2020/12/02 09:18:15;;;;;;;0.10;0.10;;;5.80;79.80;;;;;;3505451;33;20078;-90
2020/12/02 09:21:01;;;;;;;2.43;0.50;;;5.80;79.70;;;;;;3615274;35;20112;-93
2020/12/02 09:23:30;;;;;;;3.57;0.43;;;6.00;79.60;;;;;;3514534;40;20144;-91
2020/12/02 09:31:01;;;;;;;4.63;0.67;;;6.10;79.90;;;;;;3539405;33;20093;-89
2020/12/02 09:33:27;;;;;;;0.83;0.43;;;6.10;79.50;;;;;;3511800;33;20109;-89
2020/12/02 09:36:05;;;;;;;0.43;0.27;;;6.20;79.50;;;;;;3501733;41;20110;-89
2020/12/02 09:38:35;;;;;;;0.20;0.10;;;6.20;79.40;;;;;;3504914;33;20110;-89
2020/12/02 09:41:27;;;;;;;0.40;0.10;;;6.30;79.40;;;;;;3757610;28;20178;-90
2020/12/02 09:44:50;;;;;;;0.60;0.30;;;6.30;79.40;;;;;;3522542;40;20108;-91
2020/12/02 09:47:17;;;;;;;0.10;0.10;;;6.40;79.40;;;;;;3882545;35;20097;-90
2020/12/02 09:49:46;;;;;;;0.67;0.10;;;6.40;79.20;;;;;;3517972;33;20120;-88
2020/12/02 09:55:48;;;;;;;1.43;0.23;;;6.70;78.90;;;;;;3675358;27;19995;-89
2020/12/02 10:07:09;;;;;;;3.60;0.33;;;7.00;78.40;;;;;;3734371;33;20542;-89
2020/12/02 10:10:05;;;;;;;0.10;0.00;;;7.10;78.10;;;;;;3508288;33;20568;-88
2020/12/02 10:12:44;;;;;;;0.00;0.00;;;7.40;77.90;;;;;;3508059;40;20149;-89
2020/12/02 10:15:30;;;;;;;0.37;0.20;;;7.70;77.10;;;;;;3506647;33;20169;-89
2020/12/02 10:18:31;;;;;;;0.17;0.03;;;8.00;76.30;;;;;;3506367;40;20525;-88
2020/12/02 10:21:33;;;;;;;0.20;0.10;;;8.30;75.60;;;;;;3510402;33;20121;-87
2020/12/02 10:24:20;;;;;;;0.45;0.00;;;8.50;75.40;;;;;;3515575;40;20094;-88
2020/12/02 10:26:56;;;;;;;0.25;0.25;;;8.60;75.30;;;;;;3517726;40;20102;-87
2020/12/02 10:29:54;;;;;;;1.63;0.22;;;8.80;75.00;;;;;;3526694;33;20137;-85
2020/12/02 10:32:39;;;;;;;1.40;0.20;;;9.10;74.80;;;;;;3501419;34;20132;-89
2020/12/02 10:35:05;;;;;;;0.40;0.10;;;9.20;74.60;;;;;;3506644;40;20125;-88
2020/12/02 10:37:37;;;;;;;0.30;0.08;;;9.20;75.00;;;;;;3507698;40;20078;-89
2020/12/02 10:40:05;;;;;;;0.38;0.05;;;9.20;75.20;;;;;;3507147;33;20113;-88
2020/12/02 10:42:38;;;;;;;0.15;0.05;;;9.20;75.30;;;;;;3513586;33;20557;-88
2020/12/02 10:45:06;;;;;;;4.50;0.63;;;9.30;75.40;;;;;;3508679;33;20176;-87
2020/12/02 10:48:06;;;;;;;0.35;0.20;;;9.50;75.30;;;;;;3516495;33;20121;-91
2020/12/02 10:50:34;;;;;;;0.20;0.10;;;9.60;75.10;;;;;;3512615;40;20125;-89
2020/12/02 10:53:05;;;;;;;0.68;0.20;;;9.60;75.10;;;;;;3508840;33;20125;-86
2020/12/02 10:55:43;;;;;;;3.03;0.98;;;9.60;75.20;;;;;;3513399;40;20113;-89
2020/12/02 10:58:13;;;;;;;1.35;0.22;;;9.50;75.60;;;;;;3489987;41;20130;-89
2020/12/02 11:00:40;;;;;;;0.00;0.00;;;9.40;76.00;;;;;;3476066;34;20133;-87
2020/12/02 11:03:32;;;;;;;0.35;0.20;;;9.40;76.10;;;;;;3486342;41;20122;-88
2020/12/02 11:06:10;;;;;;;0.55;0.30;;;9.30;76.50;;;;;;3483041;33;20134;-88
2020/12/02 11:09:01;;;;;;;0.08;0.08;;;9.30;76.50;;;;;;3491782;41;20122;-88
2020/12/02 11:12:05;;;;;;;1.42;0.22;;;9.30;76.50;;;;;;3665793;33;20868;-89
2020/12/02 11:44:34;;;;;;;;;;;;;;;;;;;;;
2020/12/02 11:47:45;;;;;;;0.00;0.00;;;9.70;75.10;;;;;;3489431;34;20129;-88
2020/12/02 11:50:46;;;;;;;0.10;0.08;;;9.60;75.30;;;;;;3470925;41;20084;-90
2020/12/02 11:54:10;;;;;;;;;;;;;;;;;;;;;
2020/12/02 11:56:57;;;;;;;0.00;0.00;;;9.50;75.70;;;;;;3447570;34;20173;-87
2020/12/02 12:00:28;;;;;;;0.00;0.00;;;9.50;75.80;;;;;;3438403;41;20211;-89
2020/12/02 12:07:46;;;;;;;;;;;;;;;;;;;;;
2020/12/02 12:10:55;;;;;;;0.57;0.22;;;9.70;75.20;;;;;;3423027;41;20077;-89
2020/12/02 12:16:53;;;;;;;0.15;0.10;;;9.80;75.00;;;;;;3424743;34;19989;-90
2020/12/02 12:20:19;;;;;;;1.20;0.17;;;9.70;74.90;;;;;;3430841;42;20120;-88
2020/12/02 12:29:35;;;;;;;1.00;0.00;;;9.70;75.10;;;;;;3412854;42;20158;-88
2020/12/02 12:32:09;;;;;;;1.85;0.52;;;9.80;75.10;;;;;;3398471;34;20150;-88
2020/12/02 12:34:56;;;;;;;1.70;0.20;;;9.80;75.00;;;;;;3415819;41;20133;-88
2020/12/02 12:37:52;;;;;;;0.38;0.10;;;9.90;74.90;;;;;;3450300;41;20127;-85
2020/12/02 12:40:24;;;;;;;0.00;0.00;;;10.20;74.60;;;;;;3448487;33;20140;-87
2020/12/02 12:42:53;;;;;;;0.55;0.10;;;10.40;74.00;;;;;;3448040;34;20153;-86
2020/12/02 12:45:42;;;;;;;0.00;0.00;;;10.60;73.70;;;;;;3470913;33;20313;-86
2020/12/02 12:48:11;;;;;;;0.00;0.00;;;10.70;73.40;;;;;;3460517;33;20537;-86
2020/12/02 12:50:37;;;;;;;4.55;0.25;;;10.60;73.70;;;;;;3483893;41;20617;-87
2020/12/02 12:53:05;;;;;;;1.00;0.60;;;10.60;74.00;;;;;;3496913;41;20169;-86
2020/12/02 12:55:31;;;;;;;0.30;0.10;;;10.60;74.10;;;;;;3490142;33;20628;-86
2020/12/02 12:57:59;;;;;;;1.52;0.20;;;10.70;74.00;;;;;;3491339;33;20150;-88
2020/12/02 13:00:25;;;;;;;0.10;0.08;;;10.70;74.20;;;;;;3497441;33;20153;-88
2020/12/02 13:03:12;;;;;;;0.10;0.00;;;10.80;74.30;;;;;;3482625;41;20142;-87
2020/12/02 13:05:38;;;;;;;0.03;0.00;;;10.90;74.20;;;;;;3491406;33;20582;-88
2020/12/02 13:08:09;;;;;;;0.10;0.00;;;11.00;73.80;;;;;;3482830;33;20146;-88
2020/12/02 13:10:45;;;;;;;0.10;0.00;;;11.20;74.40;;;;;;3487778;40;20114;-89
2020/12/02 13:13:11;;;;;;;0.30;0.15;;;11.20;73.60;;;;;;3510513;33;20094;-86
2020/12/02 13:16:20;;;;;;;0.50;0.10;;;11.20;73.80;;;;;;3501344;33;20105;-88
2020/12/02 13:19:07;;;;;;;0.00;0.00;;;11.20;74.00;;;;;;3500055;40;20129;-87
2020/12/02 13:21:58;;;;;;;2.72;0.28;;;11.20;74.10;;;;;;3507057;40;20082;-89
2020/12/02 13:24:31;;;;;;;;;;;11.30;73.90;;;;;;3499071;33;20093;-90
2020/12/02 13:27:23;;;;;;;0.32;0.17;;;11.40;73.80;;;;;;3509185;33;19990;-88
2020/12/02 13:29:49;;;;;;;5.72;0.63;;;11.50;73.50;;;;;;3505699;33;20161;-89
2020/12/02 13:32:32;;;;;;;0.63;0.30;;;11.50;73.40;;;;;;3506871;33;20599;-89
2020/12/02 13:34:58;;;;;;;0.30;0.30;;;11.30;73.70;;;;;;3495406;33;20126;-88
2020/12/02 13:37:36;;;;;;;0.00;0.00;;;11.20;74.00;;;;;;3492057;40;20129;-90
2020/12/02 13:40:03;;;;;;;0.00;0.00;;;11.10;74.50;;;;;;3496287;41;20174;-87
2020/12/02 13:42:30;;;;;;;0.98;0.13;;;11.00;74.70;;;;;;3482048;41;20157;-88
2020/12/02 13:45:41;;;;;;;2.25;0.65;;;11.00;74.80;;;;;;3476593;41;20416;-88
2020/12/02 13:48:09;;;;;;;1.38;0.20;;;11.00;74.80;;;;;;3500186;33;20142;-88
2020/12/02 13:50:36;;;;;;;0.43;0.35;;;10.80;74.90;;;;;;3487192;41;20430;-89
2020/12/02 13:53:41;;;;;;;25.50;3.60;;;10.80;75.10;;;;;;3497274;41;20134;-88
2020/12/02 13:56:27;;;;;;;1.85;0.30;;;10.70;75.10;;;;;;3515395;33;20121;-88
2020/12/02 13:58:56;;;;;;;0.25;0.20;;;10.80;75.20;;;;;;3498356;33;20137;-88
2020/12/02 14:01:30;;;;;;;17.98;0.88;;;10.70;75.10;;;;;;3509604;33;20588;-90
2020/12/02 14:04:36;;;;;;;0.80;0.28;;;10.70;75.10;;;;;;3499578;33;20142;-89
2020/12/02 14:07:10;;;;;;;2.38;0.70;;;10.80;75.10;;;;;;3497515;33;20185;-89
2020/12/02 14:09:54;;;;;;;0.25;0.05;;;10.60;75.20;;;;;;3494469;33;20118;-88
2020/12/02 14:12:26;;;;;;;0.68;0.35;;;10.50;75.50;;;;;;3493655;33;20139;-87
2020/12/02 14:14:53;;;;;;;1.45;0.13;;;10.50;75.80;;;;;;3480404;41;20457;-88
2020/12/02 14:17:20;;;;;;;0.63;0.20;;;10.50;75.70;;;;;;3487529;34;20197;-88
2020/12/02 14:19:49;;;;;;;9.20;0.85;;;10.30;75.90;;;;;;3497387;33;20141;-88
2020/12/02 14:22:25;;;;;;;0.05;0.00;;;10.30;76.10;;;;;;3488888;33;20137;-89
2020/12/02 14:24:54;;;;;;;1.00;0.28;;;10.20;76.20;;;;;;3476176;41;20134;-88
2020/12/02 14:27:27;;;;;;;1.58;0.43;;;10.30;76.10;;;;;;3477124;41;20594;-89
2020/12/02 14:30:21;;;;;;;1.10;0.25;;;10.40;76.00;;;;;;3478931;41;20149;-88
2020/12/02 14:32:48;;;;;;;2.75;0.65;;;10.40;75.70;;;;;;3481704;33;20134;-86
2020/12/02 14:35:42;;;;;;;;;;;;;;;;;;;;;
2020/12/02 14:38:24;;;;;;;0.10;0.05;;;10.30;76.00;;;;;;3498591;41;20106;-88
2020/12/02 14:41:30;;;;;;;0.75;0.32;;;10.20;76.00;;;;;;3506853;33;20129;-88
2020/12/02 16:35:43;;;;;;;1.60;0.57;;;8.50;79.20;;;;;;3631202;27;20122;-89
2020/12/02 17:00:10;;;;;;;4.68;0.50;;;8.30;79.60;;;;;;3502456;33;20131;-90
2020/12/02 17:02:39;;;;;;;1.48;0.75;;;8.30;79.70;;;;;;3479088;34;20149;-89
2020/12/02 17:39:04;;;;;;;4.88;0.88;;;7.60;80.90;;;;;;3971119;27;20124;-88
2020/12/02 17:42:20;;;;;;;;;;;;;;;;;;;;;
2020/12/02 18:16:35;;;;;;;;;;;;;;;;;;;;;
2020/12/02 20:08:25;;;;;;;1.38;0.93;;;7.80;80.30;;;;;;3892912;27;20211;-89
2020/12/02 20:11:31;;;;;;;0.70;0.30;;;7.80;80.00;;;;;;3497041;33;20146;-89
2020/12/02 20:14:47;;;;;;;0.45;0.43;;;7.80;80.10;;;;;;3499201;41;20138;-88
2020/12/02 20:17:37;;;;;;;3.72;0.55;;;7.80;80.00;;;;;;3485259;34;20142;-89
2020/12/02 20:20:32;;;;;;;6.40;0.77;;;7.80;80.10;;;;;;3488164;41;20150;-91
2020/12/02 20:23:37;;;;;;;0.30;0.10;;;7.80;80.00;;;;;;3502872;41;20129;-90
2020/12/02 20:26:38;;;;;;;0.22;0.10;;;7.80;80.00;;;;;;3491024;34;20450;-89
2020/12/02 20:29:30;;;;;;;0.40;0.13;;;7.90;80.00;;;;;;3468596;41;20139;-89
2020/12/02 20:32:31;;;;;;;1.42;0.82;;;7.90;80.00;;;;;;3471918;34;20425;-87
2020/12/02 20:35:23;;;;;;;0.70;0.20;;;7.90;80.00;;;;;;3478416;33;20146;-89
2020/12/02 20:38:20;;;;;;;1.63;0.38;;;7.90;80.00;;;;;;3484436;33;20111;-90
2020/12/02 20:43:23;;;;;;;0.30;0.20;;;7.90;79.90;;;;;;3512243;27;20700;-90
2020/12/02 20:46:02;;;;;;;2.33;0.70;;;7.90;79.90;;;;;;3486076;33;20134;-89
2020/12/02 20:59:38;;;;;;;0.65;0.40;;;7.90;80.00;;;;;;3456379;41;20154;-91
2020/12/02 21:02:30;;;;;;;3.05;0.60;;;7.90;80.00;;;;;;3486228;33;20170;-90
2020/12/02 21:05:01;;;;;;;0.52;0.35;;;7.90;79.90;;;;;;3494496;41;20466;-89
2020/12/02 21:07:30;;;;;;;;;;;8.00;79.90;;;;;;3488489;33;20518;-90
2020/12/02 21:10:05;;;;;;;0.20;0.20;;;7.90;79.80;;;;;;3494099;33;20430;-90
2020/12/02 21:12:57;;;;;;;;;;;;;;;;;;;;;
2020/12/02 21:25:37;;;;;;;;;;;;;;;;;;;;;
2020/12/02 21:28:56;;;;;;;1.05;0.57;;;8.00;79.80;;;;;;3501070;33;20397;-89
2020/12/02 21:35:50;;;;;;;0.40;0.30;;;8.00;79.80;;;;;;3481985;33;20738;-90
2020/12/02 21:38:43;;;;;;;0.17;0.10;;;8.00;79.80;;;;;;3481388;33;20160;-89
2020/12/02 21:41:13;;;;;;;1.55;0.32;;;8.00;79.90;;;;;;3476169;41;20869;-90
2020/12/02 21:47:48;;;;;;;0.47;0.32;;;7.90;80.00;;;;;;3464241;34;20412;-91
2020/12/02 21:50:39;;;;;;;0.35;0.20;;;7.90;80.00;;;;;;3470511;41;20156;-89
2020/12/02 21:53:28;;;;;;;0.98;0.50;;;7.90;80.10;;;;;;3481749;33;20140;-90
2020/12/02 21:55:59;;;;;;;0.28;0.20;;;7.80;80.20;;;;;;3488372;33;20125;-89
2020/12/02 21:58:57;;;;;;;0.20;0.20;;;7.90;80.40;;;;;;3489004;41;20130;-89
2020/12/02 22:02:05;;;;;;;0.93;0.38;;;7.80;80.40;;;;;;3495381;34;20185;-88
2020/12/02 22:05:02;;;;;;;0.85;0.25;;;7.80;80.50;;;;;;3489794;41;20139;-89
2020/12/02 22:07:49;;;;;;;0.40;0.20;;;7.80;80.50;;;;;;3499261;33;20142;-87
2020/12/02 22:10:24;;;;;;;0.55;0.40;;;7.80;80.60;;;;;;3480788;33;20186;-87
2020/12/02 22:13:15;;;;;;;4.82;0.17;;;7.70;80.70;;;;;;3493248;33;20142;-88
2020/12/02 22:15:53;;;;;;;0.40;0.20;;;7.70;80.70;;;;;;3509128;33;20138;-88
2020/12/02 22:18:45;;;;;;;0.40;0.20;;;7.70;80.90;;;;;;3481074;41;20142;-89
2020/12/02 22:21:29;;;;;;;0.57;0.30;;;7.70;80.90;;;;;;3482027;33;20150;-88
2020/12/02 22:24:15;;;;;;;0.60;0.30;;;7.70;81.00;;;;;;3489760;41;20146;-88
2020/12/02 22:26:42;;;;;;;2.17;0.47;;;7.70;81.00;;;;;;3505509;33;20335;-88
2020/12/02 22:29:12;;;;;;;2.08;0.47;;;7.70;81.10;;;;;;3498158;33;20141;-87
2020/12/02 22:31:41;;;;;;;0.52;0.30;;;7.70;81.20;;;;;;3502862;34;20138;-89
2020/12/02 22:34:22;;;;;;;0.40;0.20;;;7.70;81.20;;;;;;3514936;33;20276;-89
2020/12/02 22:37:21;;;;;;;2.58;0.57;;;7.70;81.30;;;;;;3498148;41;20134;-88
2020/12/02 22:40:32;;;;;;;2.35;0.70;;;7.70;81.30;;;;;;3490531;41;20157;-90
2020/12/02 22:43:26;;;;;;;1.83;0.47;;;7.70;81.20;;;;;;3469772;41;20311;-89
2020/12/02 22:46:06;;;;;;;6.13;0.63;;;7.70;81.20;;;;;;3458178;34;20127;-89
2020/12/02 22:48:36;;;;;;;0.00;0.00;;;7.70;81.20;;;;;;3492675;33;20110;-89
2020/12/02 22:51:16;;;;;;;0.28;0.10;;;7.70;81.10;;;;;;3494214;33;20310;-88
2020/12/02 22:53:52;;;;;;;0.10;0.00;;;7.80;81.10;;;;;;3489414;33;20561;-89
2020/12/02 22:56:18;;;;;;;0.30;0.10;;;7.80;81.10;;;;;;3502820;40;20128;-88
2020/12/02 22:58:45;;;;;;;0.57;0.25;;;7.80;81.10;;;;;;3498177;33;20118;-90
2020/12/02 23:01:12;;;;;;;0.57;0.30;;;7.80;81.20;;;;;;3504695;33;20130;-88
2020/12/02 23:03:42;;;;;;;0.15;0.08;;;7.80;81.20;;;;;;3501955;41;20150;-90
2020/12/02 23:06:31;;;;;;;1.30;0.55;;;7.80;81.20;;;;;;3520276;33;20541;-88
2020/12/02 23:09:01;;;;;;;0.25;0.08;;;7.80;81.20;;;;;;3504865;33;20502;-89
2020/12/02 23:11:41;;;;;;;0.73;0.30;;;7.90;81.20;;;;;;3495517;33;20593;-89
2020/12/02 23:14:12;;;;;;;1.27;0.43;;;7.90;81.20;;;;;;3492995;41;20292;-89
2020/12/02 23:16:43;;;;;;;0.43;0.35;;;7.90;81.20;;;;;;3484507;34;20502;-88
2020/12/02 23:19:09;;;;;;;0.40;0.28;;;7.90;81.20;;;;;;3496270;33;20131;-87
2020/12/02 23:21:36;;;;;;;0.95;0.40;;;7.90;81.30;;;;;;3489925;41;20162;-89
2020/12/02 23:24:03;;;;;;;0.30;0.15;;;7.90;81.40;;;;;;3492454;33;20130;-87
2020/12/02 23:26:53;;;;;;;0.55;0.30;;;7.80;81.40;;;;;;3501267;41;20130;-90
2020/12/02 23:29:34;;;;;;;0.35;0.25;;;7.90;81.40;;;;;;3506388;33;20141;-89
2020/12/02 23:32:34;;;;;;;0.98;0.32;;;7.90;81.50;;;;;;3501817;33;20130;-88
2020/12/02 23:35:01;;;;;;;0.47;0.30;;;7.90;81.50;;;;;;3507856;41;20142;-88
2020/12/02 23:37:27;;;;;;;4.70;0.32;;;7.90;81.50;;;;;;3495713;33;20142;-89
2020/12/02 23:39:54;;;;;;;0.20;0.17;;;7.90;81.40;;;;;;3495477;41;20564;-87
2020/12/02 23:42:25;;;;;;;0.50;0.20;;;7.90;81.50;;;;;;3500893;33;20138;-89
2020/12/02 23:45:13;;;;;;;0.68;0.25;;;7.90;82.20;;;;;;3487699;41;20258;-91
2020/12/02 23:48:17;;;;;;;0.35;0.10;;;7.90;81.50;;;;;;3488696;33;20154;-89
2020/12/02 23:50:44;;;;;;;0.52;0.20;;;8.00;81.50;;;;;;3501820;33;20146;-89
2020/12/02 23:53:23;;;;;;;0.20;0.13;;;8.00;81.40;;;;;;3489452;33;20146;-88
2020/12/02 23:55:54;;;;;;;0.63;0.10;;;8.00;81.50;;;;;;3495467;33;20138;-88
2020/12/02 23:58:31;;;;;;;0.55;0.35;;;8.00;81.40;;;;;;3492358;41;20141;-88
